createdAt,value
2023-01-31T00:00:27.413Z,28.75
2023-01-31T00:00:57.506Z,28.77
2023-01-31T00:01:27.607Z,28.82
2023-01-31T00:01:57.774Z,28.77
2023-01-31T00:02:27.809Z,28.80
2023-01-31T00:02:57.804Z,28.77
2023-01-31T00:03:27.848Z,28.74
2023-01-31T00:03:57.820Z,28.80
2023-01-31T00:04:27.819Z,28.74
2023-01-31T00:04:57.933Z,28.75
2023-01-31T00:05:28.041Z,28.76
2023-01-31T00:05:58.154Z,28.74
2023-01-31T00:06:28.277Z,28.71
2023-01-31T00:06:58.262Z,28.71
2023-01-31T00:07:28.377Z,28.73
2023-01-31T00:07:58.479Z,28.73
2023-01-31T00:08:28.593Z,28.65
2023-01-31T00:08:58.708Z,28.71
2023-01-31T00:09:28.819Z,28.68
2023-01-31T00:09:58.941Z,28.67
2023-01-31T00:10:29.042Z,28.68
2023-01-31T00:10:59.164Z,28.70
2023-01-31T00:11:29.273Z,28.63
2023-01-31T00:11:59.378Z,28.61
2023-01-31T00:12:29.497Z,28.65
2023-01-31T00:12:59.608Z,28.57
2023-01-31T00:13:29.714Z,28.60
2023-01-31T00:13:59.828Z,28.62
2023-01-31T00:14:29.935Z,28.57
2023-01-31T00:15:00.057Z,28.58
2023-01-31T00:15:30.086Z,28.67
2023-01-31T00:16:00.215Z,28.59
2023-01-31T00:16:30.196Z,28.58
2023-01-31T00:17:00.338Z,28.63
2023-01-31T00:17:30.422Z,28.62
2023-01-31T00:18:00.547Z,28.60
2023-01-31T00:18:30.645Z,28.62
2023-01-31T00:19:00.760Z,28.62
2023-01-31T00:19:30.869Z,28.56
2023-01-31T00:20:01.021Z,28.63
2023-01-31T00:20:31.012Z,28.54
2023-01-31T00:21:01.111Z,28.59
2023-01-31T00:21:31.229Z,28.62
2023-01-31T00:22:01.345Z,28.60
2023-01-31T00:22:31.451Z,28.59
2023-01-31T00:23:01.618Z,28.58
2023-01-31T00:23:31.581Z,28.67
2023-01-31T00:24:01.711Z,28.63
2023-01-31T00:24:31.814Z,28.63
2023-01-31T00:25:01.960Z,28.66
2023-01-31T00:25:31.924Z,28.63
2023-01-31T00:26:02.031Z,28.65
2023-01-31T00:26:32.287Z,28.65
2023-01-31T00:27:02.184Z,28.65
2023-01-31T00:27:32.293Z,28.69
2023-01-31T00:28:02.420Z,28.61
2023-01-31T00:28:32.404Z,28.67
2023-01-31T00:29:02.516Z,28.69
2023-01-31T00:29:32.639Z,28.65
2023-01-31T00:30:02.744Z,28.68
2023-01-31T00:30:32.860Z,28.68
2023-01-31T00:31:03.155Z,28.61
2023-01-31T00:31:33.184Z,28.69
2023-01-31T00:32:03.296Z,28.71
2023-01-31T00:32:33.218Z,28.68
2023-01-31T00:33:03.185Z,28.69
2023-01-31T00:33:33.288Z,28.69
2023-01-31T00:34:03.399Z,28.69
2023-01-31T00:34:33.522Z,28.68
2023-01-31T00:35:03.628Z,28.68
2023-01-31T00:35:33.758Z,28.67
2023-01-31T00:36:03.871Z,28.66
2023-01-31T00:36:33.986Z,28.72
2023-01-31T00:37:03.993Z,28.70
2023-01-31T00:37:34.607Z,28.69
2023-01-31T00:38:04.201Z,28.64
2023-01-31T00:38:34.674Z,28.67
2023-01-31T00:39:04.411Z,28.69
2023-01-31T00:39:34.683Z,28.70
2023-01-31T00:40:04.544Z,28.69
2023-01-31T00:40:34.648Z,28.68
2023-01-31T00:41:04.763Z,28.67
2023-01-31T00:41:34.870Z,28.75
2023-01-31T00:42:04.983Z,28.72
2023-01-31T00:42:35.477Z,28.70
2023-01-31T00:43:05.207Z,28.70
2023-01-31T00:43:35.494Z,28.69
2023-01-31T00:44:05.433Z,28.70
2023-01-31T00:44:35.933Z,28.67
2023-01-31T00:45:05.628Z,28.70
2023-01-31T00:45:35.828Z,28.70
2023-01-31T00:46:05.793Z,28.74
2023-01-31T00:46:36.708Z,28.70
2023-01-31T00:47:06.030Z,28.67
2023-01-31T00:47:36.419Z,28.70
2023-01-31T00:48:06.231Z,28.69
2023-01-31T00:48:36.348Z,28.72
2023-01-31T00:49:06.457Z,28.70
2023-01-31T00:49:36.965Z,28.67
2023-01-31T00:50:06.687Z,28.67
2023-01-31T00:50:36.815Z,28.70
2023-01-31T00:51:06.905Z,28.70
2023-01-31T00:51:36.970Z,28.64
2023-01-31T00:52:07.060Z,28.67
2023-01-31T00:52:37.978Z,28.67
2023-01-31T00:53:07.148Z,28.67
2023-01-31T00:53:37.797Z,28.75
2023-01-31T00:54:07.335Z,28.70
2023-01-31T00:54:37.953Z,28.66
2023-01-31T00:55:07.402Z,28.66
2023-01-31T00:55:37.970Z,28.66
2023-01-31T00:56:07.544Z,28.72
2023-01-31T00:56:37.923Z,28.67
2023-01-31T00:57:07.731Z,28.70
2023-01-31T00:57:37.804Z,28.67
2023-01-31T00:58:07.879Z,28.67
2023-01-31T00:58:37.940Z,28.72
2023-01-31T00:59:08.015Z,28.69
2023-01-31T00:59:38.092Z,28.70
2023-01-31T01:00:08.174Z,28.66
2023-01-31T01:00:38.765Z,28.66
2023-01-31T01:01:08.351Z,28.67
2023-01-31T01:01:38.353Z,28.64
2023-01-31T01:02:08.420Z,28.61
2023-01-31T01:02:38.414Z,28.64
2023-01-31T01:03:08.559Z,28.68
2023-01-31T01:03:38.637Z,28.70
2023-01-31T01:04:08.763Z,28.70
2023-01-31T01:04:38.746Z,28.62
2023-01-31T01:05:08.772Z,28.64
2023-01-31T01:05:38.885Z,28.66
2023-01-31T01:06:09.003Z,28.68
2023-01-31T01:06:39.115Z,28.69
2023-01-31T01:07:09.227Z,28.67
2023-01-31T01:07:39.339Z,28.67
2023-01-31T01:08:09.456Z,28.61
2023-01-31T01:08:39.573Z,28.66
2023-01-31T01:09:09.686Z,28.67
2023-01-31T01:09:39.806Z,28.64
2023-01-31T01:10:09.905Z,28.66
2023-01-31T01:10:40.021Z,28.66
2023-01-31T01:11:10.151Z,28.68
2023-01-31T01:11:40.133Z,28.68
2023-01-31T01:12:10.245Z,28.67
2023-01-31T01:12:40.354Z,28.70
2023-01-31T01:13:10.368Z,28.64
2023-01-31T01:13:40.488Z,28.67
2023-01-31T01:14:10.585Z,28.64
2023-01-31T01:14:40.703Z,28.67
2023-01-31T01:15:10.812Z,28.65
2023-01-31T01:15:40.926Z,28.70
2023-01-31T01:16:11.080Z,28.67
2023-01-31T01:16:41.188Z,28.66
2023-01-31T01:17:11.073Z,28.62
2023-01-31T01:17:41.188Z,28.66
2023-01-31T01:18:11.323Z,28.64
2023-01-31T01:18:41.425Z,28.64
2023-01-31T01:19:11.909Z,28.64
2023-01-31T01:19:41.511Z,28.67
2023-01-31T01:20:11.628Z,28.59
2023-01-31T01:20:41.745Z,28.64
2023-01-31T01:21:11.862Z,28.59
2023-01-31T01:21:41.852Z,28.58
2023-01-31T01:22:11.965Z,28.63
2023-01-31T01:22:42.081Z,28.60
2023-01-31T01:23:12.199Z,28.56
2023-01-31T01:23:42.314Z,28.60
2023-01-31T01:24:12.306Z,28.55
2023-01-31T01:24:42.417Z,28.58
2023-01-31T01:25:12.530Z,28.56
2023-01-31T01:25:42.650Z,28.55
2023-01-31T01:26:12.805Z,28.56
2023-01-31T01:26:42.894Z,28.50
2023-01-31T01:27:12.878Z,28.53
2023-01-31T01:27:42.987Z,28.51
2023-01-31T01:28:13.098Z,28.47
2023-01-31T01:28:43.209Z,28.48
2023-01-31T01:29:13.323Z,28.48
2023-01-31T01:29:43.445Z,28.49
2023-01-31T01:30:13.502Z,28.49
2023-01-31T01:30:43.629Z,28.46
2023-01-31T01:31:13.678Z,28.46
2023-01-31T01:31:43.757Z,28.45
2023-01-31T01:32:13.737Z,28.46
2023-01-31T01:32:43.730Z,28.44
2023-01-31T01:33:13.855Z,28.41
2023-01-31T01:33:43.980Z,28.42
2023-01-31T01:34:14.066Z,28.42
2023-01-31T01:34:44.130Z,28.47
2023-01-31T01:35:14.244Z,28.42
2023-01-31T01:35:44.369Z,28.44
2023-01-31T01:36:14.460Z,28.45
2023-01-31T01:36:46.854Z,28.46
2023-01-31T01:37:14.625Z,28.42
2023-01-31T01:37:44.739Z,28.44
2023-01-31T01:38:14.854Z,28.47
2023-01-31T01:38:44.967Z,28.49
2023-01-31T01:39:15.117Z,28.50
2023-01-31T01:39:45.074Z,28.44
2023-01-31T01:40:15.152Z,28.49
2023-01-31T01:40:45.265Z,28.49
2023-01-31T01:41:15.392Z,28.41
2023-01-31T01:41:45.499Z,28.45
2023-01-31T01:42:15.491Z,28.42
2023-01-31T01:42:45.607Z,28.45
2023-01-31T01:43:15.717Z,28.50
2023-01-31T01:43:45.840Z,28.45
2023-01-31T01:44:15.943Z,28.50
2023-01-31T01:44:46.063Z,28.45
2023-01-31T01:45:16.542Z,28.52
2023-01-31T01:45:46.247Z,28.52
2023-01-31T01:46:16.273Z,28.47
2023-01-31T01:46:46.236Z,28.47
2023-01-31T01:47:16.234Z,28.48
2023-01-31T01:47:46.344Z,28.50
2023-01-31T01:48:16.339Z,28.53
2023-01-31T01:48:46.481Z,28.50
2023-01-31T01:49:16.571Z,28.52
2023-01-31T01:49:46.690Z,28.52
2023-01-31T01:50:16.815Z,28.53
2023-01-31T01:50:46.913Z,28.53
2023-01-31T01:51:16.994Z,28.55
2023-01-31T01:51:47.071Z,28.56
2023-01-31T01:52:17.148Z,28.51
2023-01-31T01:52:47.224Z,28.50
2023-01-31T01:53:17.294Z,28.53
2023-01-31T01:53:47.370Z,28.53
2023-01-31T01:54:17.438Z,28.51
2023-01-31T01:54:47.525Z,28.55
2023-01-31T01:55:17.822Z,28.48
2023-01-31T01:55:47.682Z,28.51
2023-01-31T01:56:17.773Z,28.53
2023-01-31T01:56:47.827Z,28.58
2023-01-31T01:57:17.904Z,28.56
2023-01-31T01:57:47.975Z,28.54
2023-01-31T01:58:18.051Z,28.51
2023-01-31T01:58:48.134Z,28.58
2023-01-31T01:59:18.195Z,28.51
2023-01-31T01:59:48.273Z,28.54
2023-01-31T02:00:18.341Z,28.53
2023-01-31T02:00:48.434Z,28.56
2023-01-31T02:01:18.617Z,28.51
2023-01-31T02:01:48.630Z,28.58
2023-01-31T02:02:18.709Z,28.50
2023-01-31T02:02:48.718Z,28.54
2023-01-31T02:03:18.716Z,28.54
2023-01-31T02:03:48.817Z,28.51
2023-01-31T02:04:18.955Z,28.54
2023-01-31T02:04:49.037Z,28.48
2023-01-31T02:05:19.492Z,28.56
2023-01-31T02:05:49.271Z,28.53
2023-01-31T02:06:19.237Z,28.54
2023-01-31T02:06:49.350Z,28.53
2023-01-31T02:07:19.341Z,28.54
2023-01-31T02:07:49.456Z,28.53
2023-01-31T02:08:19.558Z,28.51
2023-01-31T02:08:49.675Z,28.50
2023-01-31T02:09:19.781Z,28.55
2023-01-31T02:09:49.891Z,28.53
2023-01-31T02:10:20.011Z,28.58
2023-01-31T02:10:50.142Z,28.54
2023-01-31T02:11:20.231Z,28.50
2023-01-31T02:11:50.354Z,28.50
2023-01-31T02:12:20.463Z,28.51
2023-01-31T02:12:50.574Z,28.51
2023-01-31T02:13:20.696Z,28.46
2023-01-31T02:13:50.682Z,28.54
2023-01-31T02:14:20.795Z,28.53
2023-01-31T02:14:50.916Z,28.56
2023-01-31T02:15:21.300Z,28.54
2023-01-31T02:15:51.067Z,28.51
2023-01-31T02:16:21.206Z,28.50
2023-01-31T02:16:51.239Z,28.52
2023-01-31T02:17:21.217Z,28.57
2023-01-31T02:17:51.324Z,28.56
2023-01-31T02:18:21.441Z,28.50
2023-01-31T02:18:51.551Z,28.59
2023-01-31T02:19:21.701Z,28.50
2023-01-31T02:19:51.780Z,28.54
2023-01-31T02:20:21.889Z,28.56
2023-01-31T02:20:52.006Z,28.46
2023-01-31T02:21:22.127Z,28.52
2023-01-31T02:21:52.238Z,28.54
2023-01-31T02:22:22.352Z,28.56
2023-01-31T02:22:52.463Z,28.56
2023-01-31T02:23:22.586Z,28.54
2023-01-31T02:23:52.696Z,28.52
2023-01-31T02:24:22.825Z,28.50
2023-01-31T02:24:52.924Z,28.48
2023-01-31T02:25:23.335Z,28.56
2023-01-31T02:25:53.029Z,28.54
2023-01-31T02:26:23.531Z,28.51
2023-01-31T02:26:53.173Z,28.48
2023-01-31T02:27:23.290Z,28.48
2023-01-31T02:27:53.254Z,28.50
2023-01-31T02:28:23.365Z,28.49
2023-01-31T02:28:53.474Z,28.55
2023-01-31T02:29:24.197Z,28.49
2023-01-31T02:29:53.657Z,28.54
2023-01-31T02:30:24.093Z,28.57
2023-01-31T02:30:53.947Z,28.51
2023-01-31T02:31:24.073Z,28.54
2023-01-31T02:31:54.014Z,28.51
2023-01-31T02:32:23.980Z,28.51
2023-01-31T02:32:54.093Z,28.52
2023-01-31T02:33:24.203Z,28.54
2023-01-31T02:33:54.320Z,28.51
2023-01-31T02:34:24.953Z,28.50
2023-01-31T02:34:54.471Z,28.51
2023-01-31T02:35:24.818Z,28.50
2023-01-31T02:35:54.569Z,28.48
2023-01-31T02:36:24.677Z,28.51
2023-01-31T02:36:54.801Z,28.46
2023-01-31T02:37:24.789Z,28.41
2023-01-31T02:37:54.791Z,28.43
2023-01-31T02:38:25.425Z,28.46
2023-01-31T02:38:54.940Z,28.43
2023-01-31T02:39:25.276Z,28.40
2023-01-31T02:39:55.136Z,28.46
2023-01-31T02:40:25.410Z,28.43
2023-01-31T02:40:55.234Z,28.41
2023-01-31T02:41:25.410Z,28.43
2023-01-31T02:41:55.404Z,28.43
2023-01-31T02:42:25.392Z,28.43
2023-01-31T02:42:55.502Z,28.40
2023-01-31T02:43:26.193Z,28.46
2023-01-31T02:43:55.728Z,28.43
2023-01-31T02:44:25.958Z,28.41
2023-01-31T02:44:55.958Z,28.43
2023-01-31T02:45:26.068Z,28.43
2023-01-31T02:45:56.209Z,28.41
2023-01-31T02:46:26.165Z,28.45
2023-01-31T02:46:56.272Z,28.46
2023-01-31T02:47:26.390Z,28.43
2023-01-31T02:47:56.513Z,28.45
2023-01-31T02:48:26.645Z,28.43
2023-01-31T02:48:56.614Z,28.43
2023-01-31T02:49:26.721Z,28.48
2023-01-31T02:49:56.859Z,28.46
2023-01-31T02:50:26.961Z,28.46
2023-01-31T02:50:57.065Z,28.43
2023-01-31T02:51:27.831Z,28.46
2023-01-31T02:51:57.158Z,28.46
2023-01-31T02:52:27.244Z,28.46
2023-01-31T02:52:57.319Z,28.45
2023-01-31T02:53:27.389Z,28.45
2023-01-31T02:53:57.465Z,28.45
2023-01-31T02:54:27.525Z,28.44
2023-01-31T02:54:57.608Z,28.46
2023-01-31T02:55:27.681Z,28.46
2023-01-31T02:55:57.755Z,28.51
2023-01-31T02:56:27.826Z,28.46
2023-01-31T02:56:57.909Z,28.47
2023-01-31T02:57:27.989Z,28.43
2023-01-31T02:57:58.057Z,28.43
2023-01-31T02:58:28.127Z,28.47
2023-01-31T02:58:58.220Z,28.44
2023-01-31T02:59:28.270Z,28.42
2023-01-31T02:59:58.357Z,28.49
2023-01-31T03:00:28.437Z,28.52
2023-01-31T03:00:58.549Z,28.46
2023-01-31T03:01:28.589Z,28.52
2023-01-31T03:01:58.572Z,28.43
2023-01-31T03:02:28.720Z,28.46
2023-01-31T03:02:58.701Z,28.46
2023-01-31T03:03:28.820Z,28.47
2023-01-31T03:03:58.924Z,28.49
2023-01-31T03:04:29.031Z,28.41
2023-01-31T03:04:59.144Z,28.47
2023-01-31T03:05:29.164Z,28.44
2023-01-31T03:05:59.247Z,28.47
2023-01-31T03:06:29.372Z,28.46
2023-01-31T03:06:59.356Z,28.44
2023-01-31T03:07:29.498Z,28.43
2023-01-31T03:07:59.592Z,28.43
2023-01-31T03:08:29.696Z,28.47
2023-01-31T03:08:59.809Z,28.45
2023-01-31T03:09:29.928Z,28.46
2023-01-31T03:10:00.043Z,28.43
2023-01-31T03:10:30.152Z,28.43
2023-01-31T03:11:00.260Z,28.47
2023-01-31T03:11:30.408Z,28.41
2023-01-31T03:12:00.383Z,28.43
2023-01-31T03:12:30.496Z,28.43
2023-01-31T03:13:00.622Z,28.49
2023-01-31T03:13:30.603Z,28.43
2023-01-31T03:14:00.719Z,28.41
2023-01-31T03:14:30.835Z,28.47
2023-01-31T03:15:00.942Z,28.49
2023-01-31T03:15:31.058Z,28.46
2023-01-31T03:16:01.174Z,28.43
2023-01-31T03:16:31.358Z,28.46
2023-01-31T03:17:01.375Z,28.43
2023-01-31T03:17:31.391Z,28.43
2023-01-31T03:18:01.380Z,28.44
2023-01-31T03:18:31.490Z,28.46
2023-01-31T03:19:01.598Z,28.43
2023-01-31T03:19:31.718Z,28.43
2023-01-31T03:20:01.710Z,28.46
2023-01-31T03:20:31.818Z,28.46
2023-01-31T03:21:01.975Z,28.38
2023-01-31T03:21:32.023Z,28.43
2023-01-31T03:22:02.016Z,28.39
2023-01-31T03:22:32.370Z,28.43
2023-01-31T03:23:02.186Z,28.43
2023-01-31T03:23:32.653Z,28.43
2023-01-31T03:24:02.243Z,28.43
2023-01-31T03:24:32.698Z,28.44
2023-01-31T03:25:02.408Z,28.43
2023-01-31T03:25:32.774Z,28.36
2023-01-31T03:26:02.612Z,28.46
2023-01-31T03:26:32.894Z,28.46
2023-01-31T03:27:02.770Z,28.44
2023-01-31T03:27:32.873Z,28.44
2023-01-31T03:28:03.017Z,28.43
2023-01-31T03:28:32.996Z,28.39
2023-01-31T03:29:02.984Z,28.38
2023-01-31T03:29:33.096Z,28.43
2023-01-31T03:30:03.205Z,28.46
2023-01-31T03:30:33.342Z,28.43
2023-01-31T03:31:03.456Z,28.36
2023-01-31T03:31:33.517Z,28.44
2023-01-31T03:32:03.410Z,28.44
2023-01-31T03:32:33.528Z,28.36
2023-01-31T03:33:03.685Z,28.44
2023-01-31T03:33:33.669Z,28.44
2023-01-31T03:34:03.663Z,28.39
2023-01-31T03:34:33.774Z,28.41
2023-01-31T03:35:03.880Z,28.39
2023-01-31T03:35:33.999Z,28.39
2023-01-31T03:36:04.135Z,28.46
2023-01-31T03:36:34.212Z,28.40
2023-01-31T03:37:04.323Z,28.44
2023-01-31T03:37:34.442Z,28.40
2023-01-31T03:38:04.572Z,28.35
2023-01-31T03:38:34.560Z,28.37
2023-01-31T03:39:04.663Z,28.37
2023-01-31T03:39:34.779Z,28.36
2023-01-31T03:40:04.890Z,28.27
2023-01-31T03:40:35.042Z,28.29
2023-01-31T03:41:05.023Z,28.31
2023-01-31T03:41:35.125Z,28.30
2023-01-31T03:42:05.241Z,28.37
2023-01-31T03:42:35.365Z,28.27
2023-01-31T03:43:05.374Z,28.34
2023-01-31T03:43:35.351Z,28.27
2023-01-31T03:44:05.475Z,28.24
2023-01-31T03:44:36.090Z,28.29
2023-01-31T03:45:05.507Z,28.26
2023-01-31T03:45:35.979Z,28.24
2023-01-31T03:46:05.623Z,28.29
2023-01-31T03:46:36.150Z,28.26
2023-01-31T03:47:05.826Z,28.21
2023-01-31T03:47:36.070Z,28.24
2023-01-31T03:48:06.042Z,28.26
2023-01-31T03:48:36.159Z,28.25
2023-01-31T03:49:06.149Z,28.29
2023-01-31T03:49:36.266Z,28.20
2023-01-31T03:50:06.368Z,28.22
2023-01-31T03:50:36.487Z,28.20
2023-01-31T03:51:06.608Z,28.15
2023-01-31T03:51:36.661Z,28.18
2023-01-31T03:52:06.755Z,28.18
2023-01-31T03:52:36.827Z,28.10
2023-01-31T03:53:06.925Z,28.12
2023-01-31T03:53:37.007Z,28.14
2023-01-31T03:54:07.086Z,28.18
2023-01-31T03:54:37.156Z,28.15
2023-01-31T03:55:07.228Z,28.15
2023-01-31T03:55:37.307Z,28.09
2023-01-31T03:56:07.380Z,28.12
2023-01-31T03:56:37.458Z,28.15
2023-01-31T03:57:07.530Z,28.13
2023-01-31T03:57:37.609Z,28.13
2023-01-31T03:58:07.703Z,28.05
2023-01-31T03:58:37.783Z,28.12
2023-01-31T03:59:07.855Z,28.10
2023-01-31T03:59:37.932Z,28.17
2023-01-31T04:00:08.012Z,28.09
2023-01-31T04:00:38.081Z,28.18
2023-01-31T04:01:08.177Z,28.20
2023-01-31T04:01:38.329Z,28.17
2023-01-31T04:02:08.303Z,28.20
2023-01-31T04:02:38.470Z,28.16
2023-01-31T04:03:08.486Z,28.20
2023-01-31T04:03:38.488Z,28.15
2023-01-31T04:04:08.590Z,28.16
2023-01-31T04:04:38.704Z,28.18
2023-01-31T04:05:08.817Z,28.23
2023-01-31T04:05:38.939Z,28.23
2023-01-31T04:06:09.066Z,28.15
2023-01-31T04:06:39.158Z,28.24
2023-01-31T04:07:09.268Z,28.26
2023-01-31T04:07:39.261Z,28.27
2023-01-31T04:08:09.388Z,28.23
2023-01-31T04:08:39.389Z,28.26
2023-01-31T04:09:09.495Z,28.26
2023-01-31T04:09:39.597Z,28.24
2023-01-31T04:10:09.713Z,28.25
2023-01-31T04:10:39.832Z,28.25
2023-01-31T04:11:09.941Z,28.29
2023-01-31T04:11:39.942Z,28.29
2023-01-31T04:12:10.043Z,28.27
2023-01-31T04:12:40.157Z,28.27
2023-01-31T04:13:10.292Z,28.30
2023-01-31T04:13:40.277Z,28.30
2023-01-31T04:14:10.396Z,28.30
2023-01-31T04:14:40.513Z,28.30
2023-01-31T04:15:11.327Z,28.35
2023-01-31T04:15:40.784Z,28.30
2023-01-31T04:16:11.333Z,28.33
2023-01-31T04:16:40.758Z,28.27
2023-01-31T04:17:10.863Z,28.36
2023-01-31T04:17:40.985Z,28.38
2023-01-31T04:18:11.122Z,28.32
2023-01-31T04:18:41.102Z,28.35
2023-01-31T04:19:11.228Z,28.38
2023-01-31T04:19:41.342Z,28.33
2023-01-31T04:20:11.932Z,28.35
2023-01-31T04:20:41.548Z,28.33
2023-01-31T04:21:11.780Z,28.35
2023-01-31T04:21:41.789Z,28.35
2023-01-31T04:22:11.772Z,28.35
2023-01-31T04:22:41.865Z,28.38
2023-01-31T04:23:11.979Z,28.38
2023-01-31T04:23:42.095Z,28.38
2023-01-31T04:24:12.554Z,28.35
2023-01-31T04:24:42.270Z,28.35
2023-01-31T04:25:12.570Z,28.31
2023-01-31T04:25:42.318Z,28.31
2023-01-31T04:26:12.569Z,28.33
2023-01-31T04:26:42.531Z,28.36
2023-01-31T04:27:12.516Z,28.31
2023-01-31T04:27:42.626Z,28.38
2023-01-31T04:28:12.733Z,28.35
2023-01-31T04:28:42.852Z,28.33
2023-01-31T04:29:12.843Z,28.40
2023-01-31T04:29:42.959Z,28.35
2023-01-31T04:30:13.062Z,28.38
2023-01-31T04:30:43.173Z,28.33
2023-01-31T04:31:13.421Z,28.35
2023-01-31T04:31:43.504Z,28.36
2023-01-31T04:32:13.484Z,28.36
2023-01-31T04:32:43.504Z,28.38
2023-01-31T04:33:13.613Z,28.39
2023-01-31T04:33:43.734Z,28.35
2023-01-31T04:34:13.731Z,28.40
2023-01-31T04:34:43.846Z,28.35
2023-01-31T04:35:13.953Z,28.35
2023-01-31T04:35:44.069Z,28.38
2023-01-31T04:36:14.178Z,28.35
2023-01-31T04:36:44.333Z,28.41
2023-01-31T04:37:14.298Z,28.36
2023-01-31T04:37:44.412Z,28.35
2023-01-31T04:38:14.434Z,28.30
2023-01-31T04:38:44.518Z,28.40
2023-01-31T04:39:14.632Z,28.30
2023-01-31T04:39:44.745Z,28.30
2023-01-31T04:40:14.857Z,28.34
2023-01-31T04:40:44.978Z,28.30
2023-01-31T04:41:15.086Z,28.32
2023-01-31T04:41:45.211Z,28.27
2023-01-31T04:42:15.315Z,28.21
2023-01-31T04:42:45.435Z,28.16
2023-01-31T04:43:15.569Z,28.20
2023-01-31T04:43:45.599Z,28.16
2023-01-31T04:44:15.580Z,28.21
2023-01-31T04:44:45.703Z,28.25
2023-01-31T04:45:15.820Z,28.25
2023-01-31T04:45:45.922Z,28.25
2023-01-31T04:46:16.096Z,28.23
2023-01-31T04:46:46.187Z,28.28
2023-01-31T04:47:16.166Z,28.23
2023-01-31T04:47:46.159Z,28.28
2023-01-31T04:48:16.263Z,28.32
2023-01-31T04:48:46.408Z,28.22
2023-01-31T04:49:16.496Z,28.22
2023-01-31T04:49:46.605Z,28.24
2023-01-31T04:50:16.605Z,28.19
2023-01-31T04:50:46.709Z,28.31
2023-01-31T04:51:16.814Z,28.35
2023-01-31T04:51:46.887Z,28.39
2023-01-31T04:52:16.994Z,28.39
2023-01-31T04:52:47.043Z,28.41
2023-01-31T04:53:17.111Z,28.39
2023-01-31T04:53:47.186Z,28.36
2023-01-31T04:54:17.261Z,28.38
2023-01-31T04:54:47.330Z,28.34
2023-01-31T04:55:17.408Z,28.38
2023-01-31T04:55:47.477Z,28.38
2023-01-31T04:56:17.568Z,28.35
2023-01-31T04:56:47.646Z,28.32
2023-01-31T04:57:17.715Z,28.63
2023-01-31T04:57:47.787Z,28.58
2023-01-31T04:58:17.855Z,28.57
2023-01-31T04:58:47.934Z,28.51
2023-01-31T04:59:18.002Z,28.52
2023-01-31T04:59:48.073Z,28.59
2023-01-31T05:00:18.148Z,28.62
2023-01-31T05:00:48.351Z,28.61
2023-01-31T05:01:18.324Z,28.72
2023-01-31T05:01:48.296Z,28.70
2023-01-31T05:02:18.474Z,28.66
2023-01-31T05:02:48.468Z,28.69
2023-01-31T05:03:18.563Z,28.66
2023-01-31T05:03:48.692Z,28.64
2023-01-31T05:04:18.804Z,28.61
2023-01-31T05:04:48.797Z,28.68
2023-01-31T05:05:19.251Z,28.63
2023-01-31T05:05:48.923Z,28.63
2023-01-31T05:06:19.054Z,28.58
2023-01-31T05:06:49.046Z,28.60
2023-01-31T05:07:19.179Z,28.65
2023-01-31T05:07:49.266Z,28.65
2023-01-31T05:08:19.373Z,28.64
2023-01-31T05:08:49.483Z,28.59
2023-01-31T05:09:19.611Z,28.61
2023-01-31T05:09:49.597Z,28.62
2023-01-31T05:10:19.709Z,28.64
2023-01-31T05:10:49.818Z,28.61
2023-01-31T05:11:19.938Z,28.92
2023-01-31T05:11:50.049Z,28.77
2023-01-31T05:12:20.157Z,28.72
2023-01-31T05:12:50.276Z,28.72
2023-01-31T05:13:20.380Z,28.73
2023-01-31T05:13:50.495Z,28.77
2023-01-31T05:14:20.632Z,28.85
2023-01-31T05:14:50.617Z,28.96
2023-01-31T05:15:21.084Z,29.16
2023-01-31T05:15:50.832Z,29.11
2023-01-31T05:16:21.067Z,29.05
2023-01-31T05:16:50.981Z,29.05
2023-01-31T05:17:21.090Z,29.14
2023-01-31T05:17:51.197Z,29.17
2023-01-31T05:18:21.313Z,29.20
2023-01-31T05:18:51.434Z,29.22
2023-01-31T05:19:21.547Z,29.23
2023-01-31T05:19:51.540Z,29.26
2023-01-31T05:20:21.650Z,29.26
2023-01-31T05:20:51.765Z,29.28
2023-01-31T05:21:21.876Z,29.30
2023-01-31T05:21:51.981Z,29.20
2023-01-31T05:22:22.117Z,29.25
2023-01-31T05:22:52.206Z,29.35
2023-01-31T05:23:22.321Z,29.35
2023-01-31T05:23:52.442Z,29.27
2023-01-31T05:24:22.570Z,29.28
2023-01-31T05:24:52.673Z,29.21
2023-01-31T05:25:23.081Z,29.32
2023-01-31T05:25:52.801Z,29.35
2023-01-31T05:26:22.969Z,29.22
2023-01-31T05:26:53.060Z,29.22
2023-01-31T05:27:23.030Z,29.26
2023-01-31T05:27:53.143Z,29.24
2023-01-31T05:28:23.162Z,29.26
2023-01-31T05:28:53.165Z,29.25
2023-01-31T05:29:23.276Z,29.21
2023-01-31T05:29:53.335Z,29.23
2023-01-31T05:30:23.435Z,29.22
2023-01-31T05:30:53.608Z,29.25
2023-01-31T05:31:23.805Z,29.19
2023-01-31T05:31:53.763Z,29.14
2023-01-31T05:32:23.735Z,29.17
2023-01-31T05:32:53.858Z,29.11
2023-01-31T05:33:23.950Z,29.13
2023-01-31T05:33:54.065Z,29.06
2023-01-31T05:34:24.185Z,29.05
2023-01-31T05:34:54.190Z,29.10
2023-01-31T05:35:24.180Z,29.05
2023-01-31T05:35:54.286Z,29.02
2023-01-31T05:36:24.409Z,28.97
2023-01-31T05:36:54.558Z,29.02
2023-01-31T05:37:24.592Z,28.94
2023-01-31T05:37:54.554Z,28.94
2023-01-31T05:38:24.709Z,28.95
2023-01-31T05:38:54.650Z,28.97
2023-01-31T05:39:24.758Z,28.97
2023-01-31T05:39:56.564Z,29.00
2023-01-31T05:40:24.899Z,28.99
2023-01-31T05:40:55.012Z,28.99
2023-01-31T05:41:25.130Z,28.99
2023-01-31T05:41:55.243Z,29.02
2023-01-31T05:42:25.349Z,29.02
2023-01-31T05:42:55.469Z,28.97
2023-01-31T05:43:25.572Z,29.02
2023-01-31T05:43:55.686Z,29.05
2023-01-31T05:44:25.800Z,29.04
2023-01-31T05:44:55.921Z,29.06
2023-01-31T05:45:25.963Z,29.05
2023-01-31T05:45:56.175Z,29.04
2023-01-31T05:46:26.041Z,28.98
2023-01-31T05:46:56.161Z,29.07
2023-01-31T05:47:26.271Z,28.93
2023-01-31T05:47:56.385Z,28.94
2023-01-31T05:48:26.500Z,28.98
2023-01-31T05:48:56.623Z,28.88
2023-01-31T05:49:26.605Z,28.87
2023-01-31T05:49:56.721Z,28.92
2023-01-31T05:50:26.836Z,28.90
2023-01-31T05:50:56.960Z,28.90
2023-01-31T05:51:27.014Z,28.85
2023-01-31T05:51:57.090Z,28.90
2023-01-31T05:52:27.164Z,28.88
2023-01-31T05:52:57.264Z,28.78
2023-01-31T05:53:27.321Z,28.82
2023-01-31T05:53:57.391Z,28.82
2023-01-31T05:54:27.475Z,28.80
2023-01-31T05:54:57.591Z,28.78
2023-01-31T05:55:27.644Z,28.70
2023-01-31T05:55:57.715Z,28.74
2023-01-31T05:56:27.803Z,28.71
2023-01-31T05:56:57.883Z,28.66
2023-01-31T05:57:27.962Z,28.69
2023-01-31T05:57:58.046Z,28.55
2023-01-31T05:58:28.121Z,28.50
2023-01-31T05:58:58.197Z,28.41
2023-01-31T05:59:28.274Z,28.37
2023-01-31T05:59:58.378Z,28.36
2023-01-31T06:00:28.445Z,28.37
2023-01-31T06:00:58.545Z,28.36
2023-01-31T06:01:28.654Z,28.31
2023-01-31T06:01:58.788Z,28.24
2023-01-31T06:02:28.914Z,28.26
2023-01-31T06:02:59.195Z,28.40
2023-01-31T06:03:29.041Z,28.44
2023-01-31T06:03:59.553Z,28.29
2023-01-31T06:04:29.152Z,28.24
2023-01-31T06:04:59.404Z,28.21
2023-01-31T06:05:29.253Z,28.23
2023-01-31T06:05:59.361Z,28.29
2023-01-31T06:06:29.506Z,28.22
2023-01-31T06:06:59.588Z,28.27
2023-01-31T06:07:29.703Z,28.21
2023-01-31T06:08:00.294Z,28.27
2023-01-31T06:08:29.824Z,28.29
2023-01-31T06:09:00.239Z,28.21
2023-01-31T06:09:29.971Z,28.19
2023-01-31T06:10:00.155Z,28.18
2023-01-31T06:10:30.126Z,28.13
2023-01-31T06:11:00.235Z,28.14
2023-01-31T06:11:30.886Z,28.13
2023-01-31T06:12:00.904Z,28.09
2023-01-31T06:12:30.905Z,28.11
2023-01-31T06:13:00.518Z,28.12
2023-01-31T06:13:30.793Z,28.05
2023-01-31T06:14:00.827Z,28.08
2023-01-31T06:14:30.892Z,28.02
2023-01-31T06:15:00.880Z,28.00
2023-01-31T06:15:30.874Z,28.02
2023-01-31T06:16:00.977Z,27.99
2023-01-31T06:16:31.113Z,27.99
2023-01-31T06:17:01.103Z,27.99
2023-01-31T06:17:31.482Z,27.96
2023-01-31T06:18:01.284Z,27.98
2023-01-31T06:18:31.887Z,27.94
2023-01-31T06:19:01.487Z,27.91
2023-01-31T06:19:31.967Z,27.90
2023-01-31T06:20:01.708Z,27.96
2023-01-31T06:20:31.854Z,27.94
2023-01-31T06:21:01.702Z,27.86
2023-01-31T06:21:32.052Z,27.93
2023-01-31T06:22:01.808Z,27.91
2023-01-31T06:22:31.936Z,27.83
2023-01-31T06:23:01.941Z,27.84
2023-01-31T06:23:32.037Z,27.85
2023-01-31T06:24:02.154Z,27.85
2023-01-31T06:24:32.272Z,27.84
2023-01-31T06:25:02.272Z,27.82
2023-01-31T06:25:32.374Z,27.84
2023-01-31T06:26:02.460Z,27.80
2023-01-31T06:26:33.238Z,27.79
2023-01-31T06:27:02.660Z,27.84
2023-01-31T06:27:33.110Z,27.88